createdAt,value
2022-12-09T00:01:21.190Z,-1.50
2022-12-09T00:03:48.986Z,-1.60
2022-12-09T00:06:22.962Z,-1.60
2022-12-09T00:08:51.284Z,-1.60
2022-12-09T00:11:19.984Z,-1.70
2022-12-09T00:13:56.320Z,-1.70
2022-12-09T00:16:24.918Z,-1.80
2022-12-09T00:18:52.942Z,-1.80
2022-12-09T00:21:30.290Z,-1.80
2022-12-09T00:23:59.869Z,-1.90
2022-12-09T00:26:28.376Z,-1.80
2022-12-09T00:28:56.729Z,-1.80
2022-12-09T00:31:32.725Z,-1.80
2022-12-09T00:34:04.481Z,-1.90
2022-12-09T00:36:31.649Z,-1.90
2022-12-09T00:39:00.407Z,-2.00
2022-12-09T00:41:29.414Z,-2.00
2022-12-09T00:43:57.450Z,-2.00
2022-12-09T00:46:24.803Z,-2.00
2022-12-09T00:48:51.951Z,-2.10
2022-12-09T00:51:22.444Z,-2.20
2022-12-09T00:53:55.013Z,-2.20
2022-12-09T00:56:28.703Z,-2.20
2022-12-09T00:58:57.410Z,-2.30
2022-12-09T01:01:25.935Z,-2.30
2022-12-09T01:03:53.406Z,-2.30
2022-12-09T01:06:24.991Z,-2.30
2022-12-09T01:08:52.514Z,-2.40
2022-12-09T01:11:27.713Z,-2.40
2022-12-09T01:14:01.100Z,-2.40
2022-12-09T01:16:32.576Z,-2.50
2022-12-09T01:19:04.176Z,-2.50
2022-12-09T01:21:32.602Z,-2.60
2022-12-09T01:23:59.779Z,-2.60
2022-12-09T01:26:27.113Z,-2.60
2022-12-09T01:28:55.770Z,-2.60
2022-12-09T01:31:25.698Z,-2.60
2022-12-09T01:33:56.431Z,-2.60
2022-12-09T01:36:27.429Z,-2.60
2022-12-09T01:38:54.853Z,-2.60
2022-12-09T01:41:23.345Z,-2.70
2022-12-09T01:44:23.692Z,-2.70
2022-12-09T01:46:59.288Z,-2.70
2022-12-09T01:49:41.904Z,-2.70
2022-12-09T01:52:20.289Z,-2.60
2022-12-09T01:54:49.067Z,-2.40
2022-12-09T01:57:16.561Z,-2.40
2022-12-09T01:59:44.899Z,-2.40
2022-12-09T02:02:17.055Z,-2.40
2022-12-09T02:04:47.964Z,-2.50
2022-12-09T02:07:15.242Z,-2.60
2022-12-09T02:09:43.235Z,-2.60
2022-12-09T02:12:16.284Z,-2.60
2022-12-09T02:14:50.252Z,-2.70
2022-12-09T02:17:42.008Z,-2.70
2022-12-09T02:20:19.885Z,-2.70
2022-12-09T02:23:19.979Z,-2.70
2022-12-09T02:26:02.196Z,-2.70
2022-12-09T02:28:50.679Z,-2.80
2022-12-09T02:31:54.367Z,-2.80
2022-12-09T02:34:23.948Z,-2.80
2022-12-09T02:37:21.982Z,-2.80
2022-12-09T02:40:13.836Z,-2.80
2022-12-09T02:42:43.132Z,-2.90
2022-12-09T02:45:11.762Z,-2.90
2022-12-09T02:47:45.472Z,-2.90
2022-12-09T02:50:16.128Z,-3.00
2022-12-09T02:52:47.820Z,-3.00
2022-12-09T02:55:17.747Z,-3.00
2022-12-09T02:57:44.778Z,-3.00
2022-12-09T03:00:15.629Z,-3.10
2022-12-09T03:02:50.571Z,-3.10
2022-12-09T03:05:26.722Z,-3.10
2022-12-09T03:08:23.306Z,-3.10
2022-12-09T03:11:13.693Z,-3.10
2022-12-09T03:14:11.024Z,-3.10
2022-12-09T03:17:05.398Z,-3.10
2022-12-09T03:19:42.933Z,-3.10
2022-12-09T03:22:15.330Z,-3.10
2022-12-09T03:24:53.929Z,-3.20
2022-12-09T03:27:29.194Z,-3.20
2022-12-09T03:29:57.521Z,-3.10
2022-12-09T03:32:28.318Z,-3.10
2022-12-09T03:35:07.775Z,-3.10
2022-12-09T03:37:38.850Z,-3.10
2022-12-09T03:40:13.885Z,-3.10
2022-12-09T03:43:25.613Z,-3.10
2022-12-09T03:45:55.589Z,-3.00
2022-12-09T03:48:24.211Z,-3.00
2022-12-09T03:51:30.337Z,-2.90
2022-12-09T03:54:24.849Z,-2.90
2022-12-09T03:56:57.292Z,-2.90
2022-12-09T03:59:29.496Z,-2.90
2022-12-09T04:01:57.153Z,-2.80
2022-12-09T04:04:24.429Z,-2.90
2022-12-09T04:06:54.435Z,-2.90
2022-12-09T04:09:21.814Z,-2.80
2022-12-09T04:11:49.291Z,-2.80
2022-12-09T04:14:16.607Z,-2.80
2022-12-09T04:16:45.375Z,-2.70
2022-12-09T04:19:13.068Z,-2.70
2022-12-09T04:21:40.669Z,-2.70
2022-12-09T04:24:09.625Z,-2.60
2022-12-09T04:26:36.975Z,-2.60
2022-12-09T04:29:04.029Z,-2.60
2022-12-09T04:31:31.587Z,-2.60
2022-12-09T04:34:06.815Z,-2.60
2022-12-09T04:36:36.089Z,-2.60
2022-12-09T04:39:03.825Z,-2.50
2022-12-09T04:41:31.020Z,-2.50
2022-12-09T04:43:58.061Z,-2.40
2022-12-09T04:46:25.374Z,-2.40
2022-12-09T04:48:53.323Z,-2.30
2022-12-09T04:51:20.783Z,-2.30
2022-12-09T04:53:48.141Z,-2.30
2022-12-09T04:56:19.836Z,-2.30
2022-12-09T04:58:48.702Z,-2.20
2022-12-09T05:01:26.571Z,-2.20
2022-12-09T05:03:57.311Z,-2.20
2022-12-09T05:06:25.250Z,-2.30
2022-12-09T05:08:52.876Z,-2.40
2022-12-09T05:11:21.718Z,-2.30
2022-12-09T05:13:49.170Z,-2.30
2022-12-09T05:16:18.771Z,-2.30
2022-12-09T05:18:48.161Z,-2.30
2022-12-09T05:21:20.245Z,-2.30
2022-12-09T05:23:48.668Z,-2.20
2022-12-09T05:26:19.390Z,-2.30
2022-12-09T05:28:46.979Z,-2.20
2022-12-09T05:31:18.145Z,-2.20
2022-12-09T05:33:47.958Z,-2.20
2022-12-09T05:36:18.939Z,-2.20
2022-12-09T05:38:46.999Z,-2.10
2022-12-09T05:41:14.829Z,-2.10
2022-12-09T05:43:42.425Z,-2.10
2022-12-09T05:46:10.888Z,-2.20
2022-12-09T05:48:38.374Z,-2.20
2022-12-09T05:51:21.753Z,-2.20
2022-12-09T05:53:49.282Z,-2.20
2022-12-09T05:56:22.223Z,-2.20
2022-12-09T05:58:50.412Z,-2.20
2022-12-09T06:01:18.673Z,-2.30
2022-12-09T06:03:51.036Z,-2.40
2022-12-09T06:06:20.964Z,-2.50
2022-12-09T06:08:49.348Z,-2.50
2022-12-09T06:11:21.550Z,-2.70
2022-12-09T06:13:49.968Z,-2.80
2022-12-09T06:16:19.928Z,-2.90
2022-12-09T06:18:48.549Z,-2.90
2022-12-09T06:21:19.031Z,-2.90
2022-12-09T06:23:46.975Z,-3.00
2022-12-09T06:26:23.795Z,-3.10
2022-12-09T06:28:52.185Z,-3.10
2022-12-09T06:31:20.539Z,-3.20
2022-12-09T06:33:57.549Z,-3.30
2022-12-09T06:36:28.076Z,-3.40
2022-12-09T06:38:57.013Z,-3.40
2022-12-09T06:41:25.327Z,-3.50
2022-12-09T06:43:52.659Z,-3.50
2022-12-09T06:46:24.657Z,-3.50
2022-12-09T06:48:54.040Z,-3.50
2022-12-09T06:51:22.930Z,-3.50
2022-12-09T06:53:50.705Z,-3.50
2022-12-09T06:56:18.460Z,-3.50
2022-12-09T06:58:46.769Z,-3.50
2022-12-09T07:01:19.802Z,-3.60
2022-12-09T07:03:50.298Z,-3.60
2022-12-09T07:06:35.280Z,-3.60
2022-12-09T07:09:12.243Z,-3.60
2022-12-09T07:11:42.398Z,-3.70
2022-12-09T07:14:10.728Z,-3.70
2022-12-09T07:16:40.653Z,-3.70
2022-12-09T07:19:19.195Z,-3.70
2022-12-09T07:21:47.048Z,-3.70
2022-12-09T07:24:14.661Z,-3.70
2022-12-09T07:26:42.069Z,-3.70
2022-12-09T07:29:10.047Z,-3.60
2022-12-09T07:31:37.552Z,-3.60
2022-12-09T07:34:05.749Z,-3.60
2022-12-09T07:36:36.699Z,-3.60
2022-12-09T07:39:14.703Z,-3.60
2022-12-09T07:41:42.731Z,-3.60
2022-12-09T07:44:11.369Z,-3.50
2022-12-09T07:46:40.707Z,-3.50
2022-12-09T07:49:08.390Z,-3.40
2022-12-09T07:51:35.849Z,-3.40
2022-12-09T07:54:05.394Z,-3.30
2022-12-09T07:56:32.937Z,-3.30
2022-12-09T07:59:00.761Z,-3.20
2022-12-09T08:01:30.417Z,-3.20
2022-12-09T08:03:58.687Z,-3.20
2022-12-09T08:06:29.362Z,-3.10
2022-12-09T08:09:02.975Z,-3.10
2022-12-09T08:11:32.263Z,-3.00
2022-12-09T08:14:10.426Z,-2.90
2022-12-09T08:16:40.115Z,-2.80
2022-12-09T08:19:08.079Z,-2.70
2022-12-09T08:21:35.846Z,-2.60
2022-12-09T08:24:11.126Z,-2.60
2022-12-09T08:26:40.013Z,-2.60
2022-12-09T08:29:11.249Z,-2.50
2022-12-09T08:31:42.129Z,-2.50
2022-12-09T08:34:10.266Z,-2.40
2022-12-09T08:36:38.529Z,-2.30
2022-12-09T08:39:06.275Z,-2.30
2022-12-09T08:41:37.508Z,-2.30
2022-12-09T08:44:17.242Z,-2.20
2022-12-09T08:46:51.031Z,-2.20
2022-12-09T08:49:22.107Z,-2.20
2022-12-09T08:51:52.632Z,-2.10
2022-12-09T08:54:20.758Z,-2.00
2022-12-09T08:56:51.493Z,-1.90
2022-12-09T08:59:19.486Z,-1.70
2022-12-09T09:01:47.517Z,-1.50
2022-12-09T09:04:19.366Z,-1.30
2022-12-09T09:06:50.295Z,-1.00
2022-12-09T09:09:19.317Z,-0.80
2022-12-09T09:11:47.376Z,-0.60
2022-12-09T09:14:15.770Z,-0.40
2022-12-09T09:16:45.605Z,-0.30
2022-12-09T09:19:22.625Z,-0.10
2022-12-09T09:21:50.305Z,0.00
2022-12-09T09:24:21.325Z,0.00
2022-12-09T09:26:51.846Z,0.10
2022-12-09T09:29:22.253Z,0.20
2022-12-09T09:31:54.537Z,0.20
2022-12-09T09:34:24.064Z,0.30
2022-12-09T09:36:51.948Z,0.40
2022-12-09T09:39:20.105Z,0.50
2022-12-09T09:42:02.130Z,0.50
2022-12-09T09:44:42.682Z,0.60
2022-12-09T09:47:24.095Z,0.70
2022-12-09T09:50:02.460Z,0.70
2022-12-09T09:52:31.213Z,0.90
2022-12-09T09:54:58.781Z,0.90
2022-12-09T09:57:44.495Z,1.10
2022-12-09T10:00:30.113Z,1.10
2022-12-09T10:03:14.135Z,1.30
2022-12-09T10:05:53.925Z,1.30
2022-12-09T10:08:56.278Z,1.40
2022-12-09T10:11:39.928Z,1.40
2022-12-09T10:14:34.146Z,1.20
2022-12-09T10:17:47.911Z,1.20
2022-12-09T10:20:22.655Z,1.30
2022-12-09T10:23:01.077Z,1.20
2022-12-09T10:25:36.615Z,1.30
2022-12-09T10:28:23.167Z,1.30
2022-12-09T10:30:53.601Z,1.40
2022-12-09T10:33:36.448Z,1.50
2022-12-09T10:36:05.859Z,1.60
2022-12-09T10:38:37.693Z,1.80
2022-12-09T10:42:08.952Z,2.00
2022-12-09T10:44:36.784Z,2.20
2022-12-09T10:47:28.331Z,2.40
2022-12-09T10:49:56.502Z,2.50
2022-12-09T10:52:31.796Z,2.60
2022-12-09T10:54:59.588Z,2.80
2022-12-09T10:57:29.895Z,2.90
2022-12-09T11:00:07.935Z,3.00
2022-12-09T11:02:35.807Z,3.10
2022-12-09T11:05:30.297Z,3.20
2022-12-09T11:07:59.651Z,3.30
2022-12-09T11:10:29.880Z,3.40
2022-12-09T11:13:08.949Z,3.30
2022-12-09T11:15:46.996Z,3.40
2022-12-09T11:18:33.060Z,3.50
2022-12-09T11:21:05.834Z,3.60
2022-12-09T11:23:35.668Z,3.90
2022-12-09T11:26:07.055Z,4.00
2022-12-09T11:28:41.110Z,4.10
2022-12-09T11:31:29.958Z,4.30
2022-12-09T11:34:09.448Z,4.40
2022-12-09T11:36:47.014Z,4.70
2022-12-09T11:39:30.235Z,4.80
2022-12-09T11:42:17.620Z,4.70
2022-12-09T11:45:18.078Z,4.40
2022-12-09T11:50:37.446Z,3.70
2022-12-09T11:53:11.435Z,3.70
2022-12-09T11:55:46.606Z,3.60
2022-12-09T11:58:29.408Z,3.80
2022-12-09T12:01:06.456Z,4.00
2022-12-09T12:03:56.834Z,4.40
2022-12-09T12:06:34.058Z,4.90
2022-12-09T12:09:19.900Z,5.30
2022-12-09T12:12:25.529Z,5.10
2022-12-09T12:14:53.814Z,5.10
2022-12-09T12:17:43.059Z,5.10
2022-12-09T12:20:14.072Z,5.30
2022-12-09T12:23:19.855Z,5.10
2022-12-09T12:26:08.430Z,5.00
2022-12-09T12:28:56.640Z,4.90
2022-12-09T12:31:40.134Z,5.00
2022-12-09T12:34:25.348Z,5.10
2022-12-09T12:37:01.568Z,5.20
2022-12-09T12:39:58.961Z,5.10
2022-12-09T12:43:17.514Z,5.00
2022-12-09T12:46:19.964Z,4.60
2022-12-09T12:49:29.527Z,4.20
2022-12-09T12:52:55.897Z,4.10
2022-12-09T12:55:48.976Z,4.10
2022-12-09T12:58:54.430Z,4.00
2022-12-09T13:01:33.023Z,3.80
2022-12-09T13:04:17.913Z,3.60
2022-12-09T13:07:02.893Z,3.50
2022-12-09T13:09:46.676Z,3.30
2022-12-09T13:12:39.774Z,3.20
2022-12-09T13:15:17.369Z,3.10
2022-12-09T13:17:47.400Z,3.10
2022-12-09T13:20:26.377Z,3.00
2022-12-09T13:23:24.336Z,2.90
2022-12-09T13:26:25.029Z,2.90
2022-12-09T13:29:00.018Z,2.80
2022-12-09T13:31:35.446Z,2.70
2022-12-09T13:34:38.714Z,2.70
2022-12-09T13:37:33.004Z,2.70
2022-12-09T13:40:00.981Z,2.70
2022-12-09T13:42:47.540Z,2.90
2022-12-09T13:45:35.754Z,3.00
2022-12-09T13:48:23.126Z,3.10
2022-12-09T13:50:51.407Z,3.10
2022-12-09T13:53:21.627Z,3.00
2022-12-09T13:56:00.545Z,3.00
2022-12-09T13:59:10.800Z,2.90
2022-12-09T14:02:21.108Z,2.80
2022-12-09T14:05:15.014Z,2.60
2022-12-09T14:07:51.584Z,2.60
2022-12-09T14:10:43.430Z,2.50
2022-12-09T14:13:35.372Z,2.40
2022-12-09T14:16:28.593Z,2.30
2022-12-09T14:19:24.685Z,2.30
2022-12-09T14:22:19.815Z,2.40
2022-12-09T14:24:50.355Z,2.40
2022-12-09T14:27:21.808Z,2.40
2022-12-09T14:30:02.026Z,2.40
2022-12-09T14:32:56.530Z,2.40
2022-12-09T14:35:39.456Z,2.40
2022-12-09T14:38:18.249Z,2.40
2022-12-09T14:41:35.534Z,2.30
2022-12-09T14:44:29.221Z,2.30
2022-12-09T14:47:21.269Z,2.20
2022-12-09T14:49:50.301Z,2.00
2022-12-09T14:52:29.274Z,2.00
2022-12-09T14:55:00.454Z,1.90
2022-12-09T14:57:44.041Z,1.90
2022-12-09T15:00:39.097Z,2.00
2022-12-09T15:03:35.693Z,2.00
2022-12-09T15:06:18.297Z,2.00
2022-12-09T15:08:45.878Z,1.90
2022-12-09T15:11:18.035Z,1.90
2022-12-09T15:13:48.585Z,1.90
2022-12-09T15:16:23.467Z,1.90
2022-12-09T15:18:53.253Z,1.80
2022-12-09T15:21:29.123Z,1.80
2022-12-09T15:23:57.892Z,1.80
2022-12-09T15:26:32.436Z,1.70
2022-12-09T15:29:01.372Z,1.70
2022-12-09T15:31:32.026Z,1.70
2022-12-09T15:34:09.404Z,1.70
2022-12-09T15:36:45.486Z,1.70
2022-12-09T15:39:30.923Z,1.60
2022-12-09T15:42:18.047Z,1.60
2022-12-09T15:45:16.647Z,1.50
2022-12-09T15:48:12.450Z,1.50
2022-12-09T15:50:57.331Z,1.50
2022-12-09T15:53:35.821Z,1.50
2022-12-09T15:56:33.332Z,1.50
2022-12-09T15:59:22.122Z,1.60
2022-12-09T16:01:56.550Z,1.60
2022-12-09T16:04:37.166Z,1.60
2022-12-09T16:07:18.590Z,1.50
2022-12-09T16:10:07.817Z,1.50
2022-12-09T16:12:37.965Z,1.50
2022-12-09T16:15:10.165Z,1.50
2022-12-09T16:17:54.255Z,1.50
2022-12-09T16:20:45.696Z,1.50
2022-12-09T16:23:25.241Z,1.40
2022-12-09T16:26:01.719Z,1.30
2022-12-09T16:28:32.621Z,1.30
2022-12-09T16:31:03.645Z,1.30
2022-12-09T16:33:39.047Z,1.20
2022-12-09T16:36:10.337Z,1.20
2022-12-09T16:38:38.242Z,1.20
2022-12-09T16:41:10.741Z,1.10
2022-12-09T16:43:55.363Z,1.00
2022-12-09T16:46:36.710Z,1.00
2022-12-09T16:49:05.721Z,1.00
2022-12-09T16:51:35.044Z,1.00
2022-12-09T16:54:19.672Z,1.00
2022-12-09T16:56:47.775Z,1.00
2022-12-09T16:59:15.161Z,0.90
2022-12-09T17:01:45.165Z,0.90
2022-12-09T17:04:22.654Z,0.90
2022-12-09T17:06:50.126Z,0.80
2022-12-09T17:09:17.700Z,0.80
2022-12-09T17:11:48.836Z,0.70
2022-12-09T17:14:18.360Z,0.70
2022-12-09T17:16:47.104Z,0.70
2022-12-09T17:19:15.225Z,0.70
2022-12-09T17:21:46.475Z,0.70
2022-12-09T17:24:15.825Z,0.80
2022-12-09T17:26:44.480Z,0.80
2022-12-09T17:29:12.564Z,0.90
2022-12-09T17:31:41.327Z,0.90
2022-12-09T17:34:10.170Z,0.90
2022-12-09T17:36:37.527Z,1.00
2022-12-09T17:39:07.306Z,1.00
2022-12-09T17:41:35.667Z,1.00
2022-12-09T17:44:04.047Z,1.00
2022-12-09T17:46:32.611Z,1.00
2022-12-09T17:49:01.090Z,1.10
2022-12-09T17:51:35.469Z,1.10
2022-12-09T17:54:03.678Z,1.10
2022-12-09T17:56:31.234Z,1.10
2022-12-09T17:59:15.290Z,1.10
2022-12-09T18:01:47.252Z,1.20
2022-12-09T18:04:15.969Z,1.20
2022-12-09T18:06:46.881Z,1.10
2022-12-09T18:09:17.646Z,1.10
2022-12-09T18:11:45.604Z,1.10
2022-12-09T18:14:13.438Z,1.20
2022-12-09T18:16:40.739Z,1.20
2022-12-09T18:19:12.959Z,1.20
2022-12-09T18:21:40.266Z,1.20
2022-12-09T18:24:08.087Z,1.20
2022-12-09T18:26:41.112Z,1.20
2022-12-09T18:29:09.796Z,1.20
2022-12-09T18:31:37.118Z,1.10
2022-12-09T18:34:04.173Z,1.10
2022-12-09T18:36:31.297Z,1.10
2022-12-09T18:38:59.404Z,1.10
2022-12-09T18:41:30.084Z,1.00
2022-12-09T18:44:04.330Z,0.90
2022-12-09T18:46:36.705Z,1.00
2022-12-09T18:49:07.443Z,0.90
2022-12-09T18:51:35.146Z,1.00
2022-12-09T18:54:03.907Z,1.00
2022-12-09T18:56:32.137Z,1.00
2022-12-09T18:59:08.641Z,1.00
2022-12-09T19:01:43.105Z,0.90
2022-12-09T19:04:25.243Z,1.00
2022-12-09T19:06:55.680Z,1.00
2022-12-09T19:09:31.936Z,1.10
2022-12-09T19:12:30.103Z,1.10
2022-12-09T19:14:51.706Z,1.10
2022-12-09T19:17:19.036Z,1.10
2022-12-09T19:19:47.394Z,1.10
2022-12-09T19:22:14.846Z,1.10
2022-12-09T19:24:43.347Z,1.10
2022-12-09T19:27:12.787Z,1.10
2022-12-09T19:29:40.138Z,1.10
2022-12-09T19:32:29.337Z,1.20
2022-12-09T19:34:56.037Z,1.20
2022-12-09T19:37:25.879Z,1.10
2022-12-09T19:39:52.948Z,1.20
2022-12-09T19:42:20.226Z,1.10
2022-12-09T19:45:12.041Z,1.10
2022-12-09T19:47:38.686Z,1.10
2022-12-09T19:50:07.625Z,1.10
2022-12-09T19:52:34.793Z,1.10
2022-12-09T19:55:02.901Z,1.10
2022-12-09T19:57:29.979Z,1.10
2022-12-09T19:59:57.159Z,1.10
2022-12-09T20:02:27.374Z,1.10
2022-12-09T20:04:54.461Z,1.10
2022-12-09T20:07:22.682Z,1.10
2022-12-09T20:09:50.047Z,1.10
2022-12-09T20:12:17.272Z,1.10
2022-12-09T20:14:44.384Z,1.10
2022-12-09T20:17:12.557Z,1.10
2022-12-09T20:19:39.774Z,1.10
2022-12-09T20:22:06.761Z,1.10
2022-12-09T20:24:34.270Z,1.00
2022-12-09T20:27:01.450Z,1.00
2022-12-09T20:29:33.941Z,1.00
2022-12-09T20:32:02.812Z,1.00
2022-12-09T20:34:29.951Z,1.00
2022-12-09T20:36:57.228Z,1.00
2022-12-09T20:39:25.743Z,1.00
2022-12-09T20:41:53.103Z,1.00
2022-12-09T20:44:21.806Z,1.10
2022-12-09T20:46:52.362Z,1.00
2022-12-09T20:49:26.167Z,1.10
2022-12-09T20:51:54.168Z,1.10
2022-12-09T20:54:21.351Z,1.00
2022-12-09T20:56:49.047Z,1.10
2022-12-09T20:59:16.369Z,1.00
2022-12-09T21:01:47.412Z,1.10
2022-12-09T21:04:15.243Z,1.10
2022-12-09T21:06:43.006Z,1.00
2022-12-09T21:09:14.901Z,1.00
2022-12-09T21:11:43.686Z,1.00
2022-12-09T21:14:12.488Z,1.00
2022-12-09T21:16:42.381Z,1.00
2022-12-09T21:19:15.012Z,1.10
2022-12-09T21:21:49.256Z,1.10
2022-12-09T21:24:17.353Z,1.00
2022-12-09T21:26:47.231Z,1.00
2022-12-09T21:29:15.331Z,0.90
2022-12-09T21:31:44.317Z,0.90
2022-12-09T21:34:12.065Z,0.90
2022-12-09T21:36:42.751Z,0.90
2022-12-09T21:39:15.599Z,0.90
2022-12-09T21:41:43.917Z,0.90
2022-12-09T21:44:18.917Z,0.90
2022-12-09T21:46:46.272Z,0.90
2022-12-09T21:49:15.058Z,0.90
2022-12-09T21:51:44.395Z,0.90
2022-12-09T21:54:11.701Z,0.90
2022-12-09T21:56:38.756Z,0.80
2022-12-09T21:59:07.561Z,0.80
2022-12-09T22:01:41.657Z,0.80
2022-12-09T22:04:13.435Z,0.80
2022-12-09T22:06:40.645Z,0.70
2022-12-09T22:09:08.421Z,0.70
2022-12-09T22:11:38.013Z,0.70
2022-12-09T22:14:07.666Z,0.80
2022-12-09T22:16:43.607Z,0.80
2022-12-09T22:19:16.756Z,0.80
2022-12-09T22:21:43.870Z,0.80
2022-12-09T22:24:12.954Z,0.80
2022-12-09T22:26:43.502Z,0.70
2022-12-09T22:29:15.453Z,0.70
2022-12-09T22:31:43.356Z,0.70
2022-12-09T22:34:28.588Z,0.80
2022-12-09T22:36:55.810Z,0.80
2022-12-09T22:39:23.049Z,0.80
2022-12-09T22:41:51.411Z,0.70
2022-12-09T22:44:19.961Z,0.80
2022-12-09T22:46:47.762Z,0.70
2022-12-09T22:49:16.508Z,0.70
2022-12-09T22:51:45.233Z,0.70
2022-12-09T22:54:12.862Z,0.60
2022-12-09T22:56:42.250Z,0.60
2022-12-09T22:59:10.513Z,0.60
2022-12-09T23:01:39.269Z,0.70
2022-12-09T23:04:08.382Z,0.70
2022-12-09T23:06:38.505Z,0.70
2022-12-09T23:09:08.100Z,0.70
2022-12-09T23:11:35.553Z,0.70
2022-12-09T23:14:02.742Z,0.60
2022-12-09T23:16:29.903Z,0.60
2022-12-09T23:18:58.783Z,0.50
2022-12-09T23:21:30.357Z,0.60
2022-12-09T23:24:00.853Z,0.60
2022-12-09T23:26:33.513Z,0.70
2022-12-09T23:29:03.739Z,0.60
2022-12-09T23:31:33.743Z,0.60
2022-12-09T23:34:02.065Z,0.60
2022-12-09T23:36:35.651Z,0.60
2022-12-09T23:39:05.766Z,0.60
2022-12-09T23:41:32.956Z,0.60
2022-12-09T23:43:59.993Z,0.60
2022-12-09T23:46:29.846Z,0.60
2022-12-09T23:48:57.362Z,0.60
2022-12-09T23:51:28.736Z,0.60
2022-12-09T23:54:02.281Z,0.50
2022-12-09T23:56:34.788Z,0.50
2022-12-09T23:59:08.796Z,0.50
